SHMÚ vydal meteorologické výstrahy na Nízke teploty Zobraziť výstrahy

TAF

Letisková predpoveď TAF

Informácie o správe TAF

08.04.2020 - 11:00 UTC

TAF LZIB 081100Z 0812/0912 15010KT CAVOK
    BECMG 0819/0821 VRB02KT=
TAF LZKZ 081100Z 0812/0912 VRB02KT CAVOK
    TEMPO 0812/0816 14006KT
    BECMG 0909/0911 22010KT=
TAF LZTT 081100Z 0812/0912 VRB02KT CAVOK
    TEMPO 0812/0815 10006KT
    BECMG 0909/0911 25008KT=

08.04.2020 - 08:00 UTC

TAF LZSL 080800Z 0809/0818 VRB02KT CAVOK=
TAF LZPP 080800Z 0809/0818 02005KT CAVOK
    BECMG 0809/0811 22008KT=
TAF LZZI 080800Z 0809/0818 08005KT CAVOK
    BECMG 0809/0811 02006KT=

08.04.2020 - 05:00 UTC

TAF LZSL 080500Z 0806/0815 VRB02KT CAVOK=
TAF LZPP 080500Z 0806/0815 02005KT CAVOK
    BECMG 0809/0811 22008KT=
TAF LZZI 080500Z 0806/0815 10005KT CAVOK
    BECMG 0809/0811 33005KT=

08.04.2020 - 05:00 UTC

TAF LZIB 080500Z 0806/0906 17010KT CAVOK
    TEMPO 0806/0808 04003KT
    BECMG 0819/0821 VRB02KT=
TAF LZKZ 080500Z 0806/0906 VRB02KT CAVOK
    TEMPO 0809/0816 15006KT=
TAF LZTT 080500Z 0806/0906 VRB02KT CAVOK
    TEMPO 0809/0815 10006KT=

08.04.2020 - 02:00 UTC

TAF LZSL 080200Z 0803/0812 VRB02KT CAVOK=
TAF LZZI 080200Z 0803/0812 VRB02KT CAVOK=

skok na menu ↑


skok na začiatok stránky ↑